Time;durP1;ratioP1;P1;durP2;ratioP2;P2;SDS_P1;SDS_P2;PMS_P1;PMS_P2;Temp;Humidity;BMP_temperature;BMP_pressure;BME280_temperature;BME280_humidity;BME280_pressure;Samples;Min_cycle;Max_cycle;Signal;HPM_P1;HPM_P2
2021/11/27 00:01:01;;;;;;;19.90;14.43;;;3.00;99.90;;;;;;6169292;23;19900;-78
2021/11/27 00:03:27;;;;;;;;;;;2.90;99.90;;;;;;6169315;23;20001;-78
2021/11/27 00:05:54;;;;;;;21.00;15.10;;;2.80;99.90;;;;;;6168784;23;19916;-78
2021/11/27 00:08:20;;;;;;;19.13;14.88;;;2.80;99.90;;;;;;6170357;23;20028;-78
2021/11/27 00:10:50;;;;;;;17.83;14.13;;;2.80;99.90;;;;;;6172118;23;20009;-78
2021/11/27 00:13:16;;;;;;;20.88;16.05;;;2.80;99.90;;;;;;6172349;23;20012;-78
2021/11/27 00:15:43;;;;;;;19.83;14.05;;;2.80;99.90;;;;;;6174023;23;20014;-79
2021/11/27 00:18:10;;;;;;;18.92;14.77;;;2.70;99.90;;;;;;6174855;23;20076;-78
2021/11/27 00:20:48;;;;;;;15.85;13.40;;;2.80;99.90;;;;;;6172015;23;20005;-78
2021/11/27 00:23:15;;;;;;;17.15;14.13;;;2.60;99.90;;;;;;6171405;23;20005;-78
2021/11/27 00:25:41;;;;;;;17.40;13.93;;;2.70;99.90;;;;;;6171403;23;20017;-78
2021/11/27 00:28:08;;;;;;;17.50;13.00;;;2.70;99.90;;;;;;6170817;23;20373;-78
2021/11/27 00:30:36;;;;;;;15.15;11.23;;;2.70;99.90;;;;;;6170546;23;20061;-78
2021/11/27 00:33:03;;;;;;;12.57;10.25;;;2.70;99.90;;;;;;6172855;23;20032;-78
2021/11/27 00:35:30;;;;;;;12.32;9.98;;;2.80;99.90;;;;;;6173117;23;20001;-78
2021/11/27 00:37:58;;;;;;;12.52;9.45;;;2.70;99.90;;;;;;6171435;23;20065;-79
2021/11/27 00:40:25;;;;;;;12.95;9.75;;;2.70;99.90;;;;;;6172818;23;20005;-78
2021/11/27 00:42:52;;;;;;;13.05;9.55;;;2.70;99.90;;;;;;6171600;23;20021;-78
2021/11/27 00:45:19;;;;;;;11.98;9.13;;;2.60;99.90;;;;;;6170938;23;20005;-78
2021/11/27 00:47:50;;;;;;;12.43;9.93;;;2.60;99.90;;;;;;6169971;23;20009;-78
2021/11/27 00:50:21;;;;;;;11.55;9.52;;;2.60;99.90;;;;;;6170331;23;20008;-79
2021/11/27 00:52:47;;;;;;;11.68;8.98;;;2.60;99.90;;;;;;6170020;23;20050;-78
2021/11/27 00:55:13;;;;;;;;;;;2.60;99.90;;;;;;6170101;23;20352;-78
2021/11/27 00:57:40;;;;;;;13.98;9.93;;;2.60;99.90;;;;;;6170689;23;19905;-79
2021/11/27 01:00:09;;;;;;;14.70;10.30;;;2.50;99.90;;;;;;6173706;23;20005;-78
2021/11/27 01:02:35;;;;;;;14.73;9.32;;;2.70;99.90;;;;;;6171247;23;20011;-78
2021/11/27 01:05:00;;;;;;;;;;;2.60;99.90;;;;;;6173240;23;20009;-77
2021/11/27 01:07:26;;;;;;;14.20;9.68;;;2.50;99.90;;;;;;6173486;23;19901;-78
2021/11/27 01:09:52;;;;;;;;;;;2.50;99.90;;;;;;6172364;23;20008;-78
2021/11/27 01:12:18;;;;;;;11.90;9.07;;;2.50;99.90;;;;;;6172190;23;19900;-78
2021/11/27 01:14:44;;;;;;;13.60;9.80;;;2.50;99.90;;;;;;6171895;23;20032;-78
2021/11/27 01:17:11;;;;;;;;;;;2.50;99.90;;;;;;6173000;23;19981;-78
2021/11/27 01:19:39;;;;;;;16.77;11.25;;;2.50;99.90;;;;;;6173326;23;20334;-78
2021/11/27 01:22:09;;;;;;;18.38;13.00;;;2.50;99.90;;;;;;6173603;23;20018;-78
2021/11/27 01:24:37;;;;;;;18.77;12.82;;;2.50;99.90;;;;;;6175520;23;20002;-77
2021/11/27 01:27:03;;;;;;;18.73;12.95;;;2.50;99.90;;;;;;6174827;23;20025;-78
2021/11/27 01:29:28;;;;;;;;;;;2.50;99.90;;;;;;6173932;23;20005;-79
2021/11/27 01:31:54;;;;;;;21.27;13.45;;;2.40;99.90;;;;;;6174491;23;19908;-78
2021/11/27 01:34:20;;;;;;;;;;;2.30;99.90;;;;;;6173688;23;20001;-78
2021/11/27 01:36:46;;;;;;;20.10;13.43;;;2.40;99.90;;;;;;6174727;23;19901;-78
2021/11/27 01:39:13;;;;;;;23.60;14.25;;;2.30;99.90;;;;;;6172459;23;20012;-78
2021/11/27 01:41:40;;;;;;;22.50;14.70;;;2.40;99.90;;;;;;6172627;23;20006;-79
2021/11/27 01:44:06;;;;;;;23.77;15.00;;;2.40;99.90;;;;;;6171535;23;20009;-77
2021/11/27 01:46:34;;;;;;;20.25;13.55;;;2.40;99.90;;;;;;6173299;23;20020;-78
2021/11/27 01:49:00;;;;;;;21.58;14.40;;;2.40;99.90;;;;;;6172512;23;20060;-78
2021/11/27 01:51:26;;;;;;;21.33;14.52;;;2.40;99.90;;;;;;6171791;23;20008;-79
2021/11/27 01:53:54;;;;;;;;;;;2.60;99.90;;;;;;6172069;23;20006;-77
2021/11/27 01:56:24;;;;;;;20.92;14.13;;;2.40;99.90;;;;;;6171782;23;19900;-77
2021/11/27 01:58:50;;;;;;;25.60;16.33;;;2.40;99.90;;;;;;6172465;23;19993;-78
2021/11/27 02:01:18;;;;;;;;;;;2.40;99.90;;;;;;6172719;23;20013;-78
2021/11/27 02:03:43;;;;;;;;;;;2.50;99.90;;;;;;6172661;23;19904;-78
2021/11/27 02:06:11;;;;;;;26.13;15.90;;;2.30;99.90;;;;;;6172889;23;19919;-78
2021/11/27 02:08:39;;;;;;;29.13;17.83;;;2.40;99.90;;;;;;6172107;23;20032;-78
2021/11/27 02:11:07;;;;;;;31.52;19.00;;;2.40;99.90;;;;;;6171693;23;20009;-78
2021/11/27 02:13:33;;;;;;;34.90;20.27;;;2.40;99.90;;;;;;6171792;23;20001;-78
2021/11/27 02:15:59;;;;;;;;;;;2.40;99.90;;;;;;6171208;23;20447;-78
2021/11/27 02:18:25;;;;;;;33.65;19.88;;;2.30;99.90;;;;;;6171635;23;19928;-78
2021/11/27 02:20:58;;;;;;;;;;;2.40;99.90;;;;;;6172986;23;20005;-79
2021/11/27 02:23:24;;;;;;;33.60;19.80;;;2.40;99.90;;;;;;6171697;23;20250;-78
2021/11/27 02:25:50;;;;;;;;;;;2.40;99.90;;;;;;6173554;23;20029;-79
2021/11/27 02:28:16;;;;;;;37.97;21.15;;;2.40;99.90;;;;;;6172042;23;19884;-78
2021/11/27 02:30:41;;;;;;;;;;;2.30;99.90;;;;;;6173681;23;20080;-76
2021/11/27 02:33:08;;;;;;;38.40;21.65;;;2.30;99.90;;;;;;6172536;23;19901;-78
2021/11/27 02:35:34;;;;;;;38.50;22.70;;;2.30;99.90;;;;;;6172386;23;20501;-78
2021/11/27 02:37:59;;;;;;;40.05;22.13;;;2.40;99.90;;;;;;6171048;23;20344;-78
2021/11/27 02:40:25;;;;;;;;;;;2.30;99.90;;;;;;6171915;23;20016;-79
2021/11/27 02:42:52;;;;;;;39.00;22.60;;;2.30;99.90;;;;;;6173806;23;19927;-78
2021/11/27 02:45:18;;;;;;;40.00;22.05;;;2.30;99.90;;;;;;6172281;23;20013;-79
2021/11/27 02:47:44;;;;;;;41.38;23.02;;;2.30;99.90;;;;;;6173700;23;20065;-78
2021/11/27 02:50:12;;;;;;;;;;;2.40;99.90;;;;;;6172867;23;20009;-77
2021/11/27 02:52:38;;;;;;;35.67;20.27;;;2.30;99.90;;;;;;6173559;23;19904;-78
2021/11/27 02:55:05;;;;;;;;;;;2.30;99.90;;;;;;6170735;23;20005;-79
2021/11/27 02:57:31;;;;;;;34.50;19.67;;;2.30;99.90;;;;;;6174239;23;19948;-78
2021/11/27 02:59:58;;;;;;;31.95;19.35;;;2.30;99.90;;;;;;6174667;23;19998;-78
2021/11/27 03:02:25;;;;;;;36.50;20.48;;;2.40;99.90;;;;;;6173107;23;20355;-78
2021/11/27 03:04:51;;;;;;;32.17;18.92;;;2.30;99.90;;;;;;6173114;23;20015;-78
2021/11/27 03:07:17;;;;;;;;;;;2.40;99.90;;;;;;6171890;23;20412;-78
2021/11/27 03:09:45;;;;;;;31.25;17.75;;;2.30;99.90;;;;;;6172369;23;19940;-79
2021/11/27 03:12:12;;;;;;;32.25;18.45;;;2.30;99.90;;;;;;6172323;23;19997;-79
2021/11/27 03:14:37;;;;;;;29.85;17.70;;;2.20;99.90;;;;;;6171118;23;20028;-78
2021/11/27 03:17:03;;;;;;;;;;;2.30;99.90;;;;;;6170103;23;20351;-78
2021/11/27 03:19:33;;;;;;;30.90;18.65;;;2.30;99.90;;;;;;6170621;23;19908;-78
2021/11/27 03:21:59;;;;;;;29.30;18.33;;;2.20;99.90;;;;;;6171324;23;20025;-78
2021/11/27 03:24:25;;;;;;;;;;;2.20;99.90;;;;;;6170893;23;20009;-77
2021/11/27 03:26:50;;;;;;;33.47;18.92;;;2.20;99.90;;;;;;6167309;23;19919;-77
2021/11/27 03:29:17;;;;;;;;;;;2.20;99.90;;;;;;6169652;23;20073;-79
2021/11/27 03:31:42;;;;;;;33.75;20.23;;;2.20;99.90;;;;;;6168187;23;19900;-77
2021/11/27 03:34:08;;;;;;;;;;;2.20;99.90;;;;;;6170600;23;20069;-77
2021/11/27 03:36:34;;;;;;;31.92;18.85;;;2.20;99.90;;;;;;6171003;23;19900;-79
2021/11/27 03:39:00;;;;;;;;;;;2.20;99.90;;;;;;6170698;23;20013;-78
2021/11/27 03:41:25;;;;;;;27.27;16.80;;;2.20;99.90;;;;;;6169870;23;19900;-78
2021/11/27 03:43:51;;;;;;;;;;;2.30;99.90;;;;;;6170415;23;20017;-78
2021/11/27 03:46:18;;;;;;;29.55;17.75;;;2.30;99.90;;;;;;6171015;23;19915;-78
2021/11/27 03:48:44;;;;;;;30.08;17.60;;;2.30;99.90;;;;;;6170214;23;20014;-78
2021/11/27 03:51:19;;;;;;;28.27;16.92;;;2.30;99.90;;;;;;6170339;23;20035;-78
2021/11/27 03:53:47;;;;;;;27.73;17.52;;;2.30;99.90;;;;;;6170185;23;20009;-78
2021/11/27 03:56:18;;;;;;;24.73;15.52;;;2.30;99.90;;;;;;6170758;23;19989;-78
2021/11/27 03:58:44;;;;;;;26.73;16.60;;;2.30;99.90;;;;;;6166814;23;20105;-78
2021/11/27 04:01:11;;;;;;;;;;;2.20;99.90;;;;;;6169326;23;20037;-79
2021/11/27 04:03:40;;;;;;;29.58;17.27;;;2.30;99.90;;;;;;6168507;23;19904;-78
2021/11/27 04:06:06;;;;;;;25.25;15.00;;;2.30;99.90;;;;;;6166086;23;20015;-78
2021/11/27 04:08:32;;;;;;;23.50;14.20;;;2.30;99.90;;;;;;6166150;23;20006;-78
2021/11/27 04:10:58;;;;;;;;;;;2.30;99.90;;;;;;6166807;23;19990;-80
2021/11/27 04:13:24;;;;;;;22.65;12.75;;;2.40;99.90;;;;;;6169265;23;19927;-78
2021/11/27 04:15:50;;;;;;;21.33;13.00;;;2.40;99.90;;;;;;6166396;23;20069;-79
2021/11/27 04:18:16;;;;;;;23.17;14.27;;;2.30;99.90;;;;;;6167607;23;20006;-78
2021/11/27 04:20:42;;;;;;;;;;;2.40;99.90;;;;;;6167318;23;20006;-79
2021/11/27 04:23:08;;;;;;;22.80;13.57;;;2.40;99.90;;;;;;6165609;23;20125;-79
2021/11/27 04:25:34;;;;;;;22.75;13.60;;;2.40;99.90;;;;;;6169511;23;19997;-79
2021/11/27 04:28:00;;;;;;;;;;;2.40;99.90;;;;;;6172316;23;20029;-78
2021/11/27 04:30:28;;;;;;;19.83;12.57;;;2.30;99.90;;;;;;6171151;23;20012;-78
2021/11/27 04:32:54;;;;;;;23.65;13.77;;;2.40;99.90;;;;;;6170827;23;19986;-78
2021/11/27 04:35:21;;;;;;;19.27;12.27;;;2.40;99.90;;;;;;6173471;23;20343;-77
2021/11/27 04:37:47;;;;;;;21.75;12.70;;;2.40;99.90;;;;;;6171512;23;20010;-78
2021/11/27 04:40:14;;;;;;;20.42;13.45;;;2.30;99.90;;;;;;6172715;23;19997;-78
2021/11/27 04:42:40;;;;;;;22.45;13.02;;;2.30;99.90;;;;;;6169767;23;20028;-78
2021/11/27 04:45:06;;;;;;;;;;;2.20;99.90;;;;;;6172242;23;20366;-78
2021/11/27 04:47:32;;;;;;;20.60;12.02;;;2.20;99.90;;;;;;6171014;23;19909;-78
2021/11/27 04:49:58;;;;;;;16.83;10.27;;;2.20;99.90;;;;;;6172447;23;19997;-77
2021/11/27 04:52:24;;;;;;;;;;;2.10;99.90;;;;;;6173001;23;20033;-77
2021/11/27 04:54:50;;;;;;;21.77;12.95;;;2.10;99.90;;;;;;6171503;23;19928;-78
2021/11/27 04:57:16;;;;;;;19.20;11.50;;;2.00;99.90;;;;;;6170921;23;20036;-77
2021/11/27 04:59:43;;;;;;;20.52;11.65;;;2.10;99.90;;;;;;6172520;23;20008;-78
2021/11/27 05:02:09;;;;;;;19.30;11.73;;;2.10;99.90;;;;;;6170793;23;20002;-78
2021/11/27 05:04:34;;;;;;;;;;;2.10;99.90;;;;;;6171449;23;20040;-78
2021/11/27 05:07:00;;;;;;;19.50;11.32;;;2.10;99.90;;;;;;6172692;23;19913;-78
2021/11/27 05:09:26;;;;;;;;;;;2.20;99.90;;;;;;6170822;23;20006;-77
2021/11/27 05:11:51;;;;;;;16.40;9.43;;;2.10;99.90;;;;;;6170235;23;19900;-77
2021/11/27 05:14:17;;;;;;;;;;;2.10;99.90;;;;;;6170433;23;20009;-78
2021/11/27 05:16:42;;;;;;;17.02;9.80;;;2.10;99.90;;;;;;6171613;23;19907;-78
2021/11/27 05:19:08;;;;;;;;;;;2.10;99.90;;;;;;6172231;23;20379;-79
2021/11/27 05:21:33;;;;;;;20.00;10.40;;;2.10;99.90;;;;;;6173061;23;19908;-78
2021/11/27 05:23:59;;;;;;;;;;;2.20;99.90;;;;;;6171007;23;20037;-78
2021/11/27 05:26:25;;;;;;;31.88;17.10;;;2.10;99.90;;;;;;6171206;23;19892;-77
2021/11/27 05:28:51;;;;;;;;;;;2.20;99.90;;;;;;6172848;23;19998;-78
2021/11/27 05:31:18;;;;;;;45.40;24.52;;;2.20;99.90;;;;;;6172648;23;20293;-78
2021/11/27 05:36:10;;;;;;;;;;;2.20;99.90;;;;;;6182056;23;20012;-79
2021/11/27 05:38:35;;;;;;;43.55;24.00;;;2.30;99.90;;;;;;6170811;23;19900;-78
2021/11/27 05:41:01;;;;;;;;;;;2.20;99.90;;;;;;6171418;23;20512;-77
2021/11/27 05:43:27;;;;;;;44.63;23.73;;;2.20;99.90;;;;;;6171007;23;19912;-78
2021/11/27 05:45:52;;;;;;;;;;;2.20;99.90;;;;;;6170276;23;20045;-77
2021/11/27 05:48:18;;;;;;;44.38;25.02;;;2.20;99.90;;;;;;6171617;23;19900;-77
2021/11/27 05:50:43;;;;;;;;;;;2.20;99.90;;;;;;6172352;23;20008;-79
2021/11/27 05:53:10;;;;;;;41.70;23.48;;;2.10;99.90;;;;;;6168764;23;20344;-77
2021/11/27 05:55:35;;;;;;;43.42;23.40;;;2.20;99.90;;;;;;6170279;23;20021;-79
2021/11/27 05:58:01;;;;;;;;;;;2.10;99.90;;;;;;6172365;23;20486;-78
2021/11/27 06:00:27;;;;;;;42.30;23.02;;;2.10;99.90;;;;;;6171629;23;19923;-77
2021/11/27 06:02:53;;;;;;;;;;;2.10;99.90;;;;;;6172350;23;20005;-77
2021/11/27 06:05:18;;;;;;;40.95;22.60;;;2.10;99.90;;;;;;6170469;23;19991;-77
2021/11/27 06:07:44;;;;;;;;;;;2.10;99.90;;;;;;6172330;23;19985;-80
2021/11/27 06:10:11;;;;;;;41.08;22.58;;;2.10;99.90;;;;;;6172209;23;20323;-77
2021/11/27 06:12:37;;;;;;;42.40;22.83;;;2.10;99.90;;;;;;6174094;23;20060;-78
2021/11/27 06:15:03;;;;;;;;;;;2.10;99.90;;;;;;6170948;23;20001;-77
2021/11/27 06:17:28;;;;;;;46.63;23.15;;;2.10;99.90;;;;;;6170387;23;19953;-79
2021/11/27 06:19:54;;;;;;;;;;;2.10;99.90;;;;;;6172666;23;20013;-77
2021/11/27 06:22:22;;;;;;;41.13;21.65;;;2.10;99.90;;;;;;6172427;23;19900;-78
2021/11/27 06:24:49;;;;;;;36.28;21.42;;;2.10;99.90;;;;;;6170983;23;20035;-76
2021/11/27 06:27:14;;;;;;;39.50;21.58;;;2.10;99.90;;;;;;6171931;23;20008;-77
2021/11/27 06:29:40;;;;;;;;;;;2.10;99.90;;;;;;6171316;23;20006;-79
2021/11/27 06:32:09;;;;;;;39.20;21.45;;;2.10;99.90;;;;;;6169783;23;19908;-78
2021/11/27 06:34:35;;;;;;;37.30;19.90;;;2.20;99.90;;;;;;6169463;23;20009;-78
2021/11/27 06:37:01;;;;;;;37.72;22.13;;;2.20;99.90;;;;;;6170353;23;20032;-78
2021/11/27 06:39:26;;;;;;;;;;;2.20;99.90;;;;;;6170860;23;20009;-77
2021/11/27 06:41:52;;;;;;;38.97;23.88;;;2.20;99.90;;;;;;6168231;23;19956;-77
2021/11/27 06:44:17;;;;;;;;;;;2.20;99.90;;;;;;6170088;23;20065;-78
2021/11/27 06:46:43;;;;;;;38.38;20.75;;;2.30;99.90;;;;;;6167447;23;19909;-76
2021/11/27 06:49:09;;;;;;;;;;;2.30;99.90;;;;;;6169431;23;20006;-77
2021/11/27 06:51:35;;;;;;;35.85;20.55;;;2.30;99.90;;;;;;6167570;23;20349;-77
2021/11/27 06:54:00;;;;;;;;;;;2.40;99.90;;;;;;6169262;23;20015;-77
2021/11/27 06:56:26;;;;;;;31.35;18.98;;;2.50;99.90;;;;;;6168784;23;19900;-77
2021/11/27 06:58:51;;;;;;;;;;;2.60;99.90;;;;;;6167961;23;20010;-79
2021/11/27 07:01:17;;;;;;;32.70;19.48;;;2.70;99.90;;;;;;6164543;23;19900;-78
2021/11/27 07:03:43;;;;;;;;;;;2.70;99.90;;;;;;6165161;23;20346;-78
2021/11/27 07:06:08;;;;;;;35.53;19.90;;;2.70;99.90;;;;;;6167873;23;19909;-78
2021/11/27 07:08:34;;;;;;;;;;;2.80;99.90;;;;;;6170526;23;20009;-78
2021/11/27 07:10:59;;;;;;;35.30;19.98;;;2.80;99.90;;;;;;6168302;23;19915;-79
2021/11/27 07:13:25;;;;;;;;;;;2.90;99.90;;;;;;6168173;23;20128;-78
2021/11/27 07:15:51;;;;;;;35.33;19.83;;;3.00;99.90;;;;;;6169540;23;19980;-78
2021/11/27 07:18:16;;;;;;;35.28;20.98;;;3.00;99.90;;;;;;6167371;23;20017;-79
2021/11/27 07:20:42;;;;;;;31.63;18.80;;;3.10;99.90;;;;;;6167406;23;20001;-78
2021/11/27 07:23:09;;;;;;;;;;;3.10;99.90;;;;;;6167642;23;20017;-77
2021/11/27 07:25:35;;;;;;;27.33;16.88;;;3.30;99.90;;;;;;6166121;23;20288;-78
2021/11/27 07:28:01;;;;;;;24.92;15.52;;;3.40;99.90;;;;;;6166649;23;20032;-77
2021/11/27 07:30:26;;;;;;;;;;;3.50;99.90;;;;;;6165745;23;20005;-76
2021/11/27 07:32:52;;;;;;;25.88;15.95;;;3.70;99.90;;;;;;6166152;23;19984;-77
2021/11/27 07:35:18;;;;;;;;;;;3.90;99.90;;;;;;6165252;23;20021;-77
2021/11/27 07:37:43;;;;;;;28.52;16.52;;;4.00;99.90;;;;;;6165296;23;19946;-78
2021/11/27 07:40:09;;;;;;;;;;;4.10;99.90;;;;;;6164656;23;20032;-78
2021/11/27 07:42:34;;;;;;;27.30;15.25;;;4.00;99.90;;;;;;6165466;23;20334;-78
2021/11/27 07:45:00;;;;;;;24.65;14.30;;;4.10;99.90;;;;;;6165559;23;20049;-78
2021/11/27 07:47:26;;;;;;;;;;;4.10;99.90;;;;;;6164716;23;20031;-77
2021/11/27 07:49:51;;;;;;;22.77;14.15;;;3.90;99.90;;;;;;6165641;23;20326;-78
2021/11/27 07:52:21;;;;;;;;;;;3.90;99.90;;;;;;6167492;23;20005;-78
2021/11/27 07:54:47;;;;;;;22.13;12.55;;;3.90;99.90;;;;;;6165106;23;19905;-76
2021/11/27 07:57:13;;;;;;;20.80;13.82;;;3.80;99.90;;;;;;6166291;23;19989;-77
2021/11/27 07:59:38;;;;;;;;;;;3.90;99.90;;;;;;6166761;23;20056;-77
2021/11/27 08:02:04;;;;;;;21.92;12.68;;;3.90;99.90;;;;;;6164892;23;19940;-77
2021/11/27 08:04:30;;;;;;;22.67;14.45;;;3.80;99.90;;;;;;6167248;23;20137;-77
2021/11/27 08:06:55;;;;;;;;;;;3.80;99.90;;;;;;6165769;23;20017;-77
2021/11/27 08:09:21;;;;;;;29.48;16.63;;;3.70;99.90;;;;;;6165505;23;20050;-78
2021/11/27 08:11:46;;;;;;;26.83;16.20;;;3.80;99.90;;;;;;6165832;23;20594;-78
2021/11/27 08:14:12;;;;;;;;;;;3.80;99.90;;;;;;6166930;23;20032;-76
2021/11/27 08:16:38;;;;;;;32.65;19.20;;;3.80;99.90;;;;;;6164678;23;19945;-77
2021/11/27 08:19:03;;;;;;;;;;;4.00;99.90;;;;;;6165659;23;20005;-77
2021/11/27 08:21:29;;;;;;;36.72;21.30;;;3.90;99.90;;;;;;6164701;23;19900;-77
2021/11/27 08:23:55;;;;;;;;;;;3.90;99.90;;;;;;6164888;23;20006;-78
2021/11/27 08:26:20;;;;;;;32.97;19.85;;;4.00;99.90;;;;;;6162447;23;19931;-77
2021/11/27 08:28:46;;;;;;;34.60;19.70;;;4.10;99.90;;;;;;6165202;23;20009;-77
2021/11/27 08:31:12;;;;;;;;;;;4.10;99.90;;;;;;6165834;23;20006;-76
2021/11/27 08:33:38;;;;;;;33.65;20.27;;;4.10;99.90;;;;;;6166224;23;19905;-78
2021/11/27 08:36:04;;;;;;;33.17;20.73;;;4.20;99.90;;;;;;6166858;23;20013;-77
2021/11/27 08:38:30;;;;;;;30.65;18.45;;;4.20;99.90;;;;;;6164178;23;20029;-78
2021/11/27 08:40:56;;;;;;;;;;;4.20;99.90;;;;;;6163794;23;20006;-77
2021/11/27 08:43:22;;;;;;;31.93;18.93;;;4.20;99.90;;;;;;6165366;23;19912;-78
2021/11/27 08:45:49;;;;;;;;;;;4.30;99.90;;;;;;6166264;23;20018;-77
2021/11/27 08:48:15;;;;;;;30.55;19.13;;;4.40;99.90;;;;;;6162368;23;19900;-78
2021/11/27 08:50:41;;;;;;;46.40;22.10;;;4.40;99.90;;;;;;6164095;23;20040;-77
2021/11/27 08:53:07;;;;;;;;;;;4.50;99.90;;;;;;6165799;23;20056;-78
2021/11/27 08:55:32;;;;;;;35.35;20.17;;;4.50;99.90;;;;;;6163089;23;19952;-76
2021/11/27 08:57:58;;;;;;;;;;;4.50;99.90;;;;;;6165150;23;20033;-78
2021/11/27 09:00:24;;;;;;;35.20;21.60;;;4.60;99.90;;;;;;6165317;23;19905;-78
2021/11/27 09:02:50;;;;;;;;;;;4.70;99.90;;;;;;6166128;23;20016;-80
2021/11/27 09:05:16;;;;;;;42.15;22.95;;;5.00;99.90;;;;;;6163157;23;19952;-77
2021/11/27 09:07:41;;;;;;;;;;;5.20;99.90;;;;;;6169200;23;20001;-77
2021/11/27 09:10:08;;;;;;;33.88;20.92;;;5.50;99.90;;;;;;6164993;23;19904;-78
2021/11/27 09:12:35;;;;;;;31.00;19.55;;;5.70;99.90;;;;;;6164616;23;20078;-77
2021/11/27 09:15:01;;;;;;;30.60;19.75;;;5.80;99.90;;;;;;6166065;23;20068;-77
2021/11/27 09:17:26;;;;;;;;;;;5.80;99.90;;;;;;6166774;23;20017;-78
2021/11/27 09:19:53;;;;;;;29.08;18.15;;;5.70;99.90;;;;;;6168333;23;19908;-78
2021/11/27 09:22:18;;;;;;;27.50;17.35;;;5.70;99.90;;;;;;6167231;23;20378;-77
2021/11/27 09:24:44;;;;;;;;;;;5.70;99.90;;;;;;6168713;23;20028;-78
2021/11/27 09:27:10;;;;;;;28.58;16.55;;;5.70;99.90;;;;;;6167415;23;19904;-78
2021/11/27 09:29:38;;;;;;;;;;;5.70;99.90;;;;;;6167938;23;20025;-77
2021/11/27 09:32:04;;;;;;;25.92;17.02;;;5.80;99.90;;;;;;6167868;23;19905;-77
2021/11/27 09:34:30;;;;;;;;;;;5.80;99.90;;;;;;6167051;23;20037;-77
2021/11/27 09:36:56;;;;;;;52.38;24.45;;;5.60;99.90;;;;;;6167998;23;19905;-77
2021/11/27 09:39:23;;;;;;;51.97;23.02;;;5.60;99.90;;;;;;6163820;23;20399;-78
2021/11/27 09:41:50;;;;;;;33.10;19.35;;;5.50;99.90;;;;;;6162433;23;20093;-78
2021/11/27 09:44:19;;;;;;;31.85;18.45;;;5.40;99.90;;;;;;6167703;23;20001;-77
2021/11/27 09:46:45;;;;;;;29.27;17.98;;;5.40;99.90;;;;;;6167131;23;20024;-77
2021/11/27 09:49:18;;;;;;;29.27;17.98;;;5.30;99.90;;;;;;6167533;23;20443;-78
2021/11/27 09:51:45;;;;;;;54.60;24.17;;;5.50;99.90;;;;;;6164175;23;20009;-77
2021/11/27 09:54:12;;;;;;;36.20;19.83;;;5.50;99.90;;;;;;6166674;23;20649;-77
2021/11/27 09:56:38;;;;;;;40.38;22.52;;;5.60;99.90;;;;;;6164948;23;20674;-78
2021/11/27 09:59:05;;;;;;;42.63;25.88;;;5.60;99.90;;;;;;6165213;23;20088;-78
2021/11/27 10:01:33;;;;;;;37.58;20.83;;;5.60;99.90;;;;;;6165592;23;20374;-77
2021/11/27 10:04:08;;;;;;;45.78;25.17;;;5.60;99.90;;;;;;6165944;23;20017;-78
2021/11/27 10:06:37;;;;;;;58.70;25.42;;;5.60;99.90;;;;;;6163881;23;20014;-77
2021/11/27 10:09:09;;;;;;;44.47;24.08;;;5.70;99.90;;;;;;6165561;23;20089;-77
2021/11/27 10:11:35;;;;;;;36.22;21.92;;;5.70;99.90;;;;;;6164413;23;20006;-79
2021/11/27 10:14:02;;;;;;;39.20;23.40;;;5.80;99.90;;;;;;6165583;23;20009;-78
2021/11/27 10:16:29;;;;;;;40.30;21.52;;;5.90;99.90;;;;;;6165829;23;20050;-78
2021/11/27 10:19:09;;;;;;;47.05;31.40;;;5.90;99.90;;;;;;6163617;23;20012;-77
2021/11/27 10:21:38;;;;;;;34.40;22.25;;;5.80;99.90;;;;;;6161581;23;20392;-77
2021/11/27 10:24:28;;;;;;;34.90;23.85;;;5.70;99.90;;;;;;6161193;23;20013;-78
2021/11/27 10:26:57;;;;;;;28.63;19.13;;;5.70;99.90;;;;;;6161128;23;20013;-78
2021/11/27 10:29:34;;;;;;;33.13;18.95;;;5.60;99.90;;;;;;6159963;23;20012;-77
2021/11/27 10:32:07;;;;;;;24.92;17.27;;;5.50;99.90;;;;;;6162931;23;20107;-77
2021/11/27 10:34:34;;;;;;;24.42;16.50;;;5.60;99.90;;;;;;6161400;23;20029;-78
2021/11/27 10:37:00;;;;;;;40.47;22.17;;;5.70;99.90;;;;;;6163019;23;20056;-78
2021/11/27 10:39:26;;;;;;;53.20;29.88;;;5.80;99.90;;;;;;6160442;23;20032;-77
2021/11/27 10:42:11;;;;;;;;;;;5.80;99.90;;;;;;6162993;23;20428;-77
2021/11/27 10:44:38;;;;;;;37.08;23.40;;;5.90;99.90;;;;;;6160498;23;19909;-78
2021/11/27 10:47:17;;;;;;;34.13;20.02;;;5.90;99.90;;;;;;6161974;23;20009;-77
2021/11/27 10:49:46;;;;;;;46.20;21.98;;;5.90;99.90;;;;;;6160853;23;20514;-77
2021/11/27 10:52:17;;;;;;;33.10;19.58;;;6.00;99.90;;;;;;6160737;23;20339;-78
2021/11/27 10:54:58;;;;;;;40.83;22.40;;;6.10;99.90;;;;;;6160191;23;20009;-78
2021/11/27 10:57:33;;;;;;;34.38;19.90;;;6.10;99.90;;;;;;6162504;23;20001;-78
2021/11/27 11:00:20;;;;;;;33.75;19.30;;;6.10;99.90;;;;;;6160469;23;20797;-78
2021/11/27 11:02:46;;;;;;;29.33;17.55;;;6.20;99.90;;;;;;6140311;23;20006;-77
2021/11/27 11:05:14;;;;;;;;;;;6.30;99.90;;;;;;6160073;23;20026;-77
2021/11/27 11:07:57;;;;;;;26.05;16.92;;;6.50;99.90;;;;;;6160601;23;19975;-77
2021/11/27 11:10:32;;;;;;;29.67;18.55;;;6.40;99.90;;;;;;6162348;23;20029;-77
2021/11/27 11:13:09;;;;;;;29.48;19.08;;;6.20;99.90;;;;;;6161074;23;20017;-77
2021/11/27 11:15:39;;;;;;;25.98;17.33;;;6.00;99.90;;;;;;6162890;23;20053;-77
2021/11/27 11:18:09;;;;;;;27.52;16.90;;;5.90;99.90;;;;;;6162377;23;20009;-77
2021/11/27 11:20:46;;;;;;;48.40;35.97;;;5.80;99.90;;;;;;6162962;23;19998;-77
2021/11/27 11:23:21;;;;;;;52.38;36.97;;;5.80;99.90;;;;;;6161491;23;20039;-77
2021/11/27 11:25:55;;;;;;;29.40;16.88;;;5.90;99.90;;;;;;6161862;23;20017;-77
2021/11/27 11:28:23;;;;;;;26.67;15.43;;;6.00;99.90;;;;;;6164917;23;20008;-77
2021/11/27 11:30:50;;;;;;;34.92;22.38;;;5.90;99.90;;;;;;6163886;23;20003;-77
2021/11/27 11:33:18;;;;;;;26.58;17.90;;;5.80;99.90;;;;;;6161939;23;20005;-77
2021/11/27 11:35:44;;;;;;;30.08;19.88;;;5.70;99.90;;;;;;6161003;23;20012;-77
2021/11/27 11:38:12;;;;;;;;;;;5.80;99.90;;;;;;6161789;23;20080;-77
2021/11/27 11:40:42;;;;;;;30.95;19.88;;;5.80;99.90;;;;;;6159280;23;19912;-77
2021/11/27 11:43:08;;;;;;;34.72;22.48;;;5.80;99.90;;;;;;6160519;23;20037;-78
2021/11/27 11:45:34;;;;;;;;;;;5.70;99.90;;;;;;6162295;23;20033;-76
2021/11/27 11:48:01;;;;;;;37.35;24.40;;;5.70;99.90;;;;;;6160028;23;19944;-77
2021/11/27 11:50:29;;;;;;;29.27;18.73;;;5.70;99.90;;;;;;6163590;23;20021;-77
2021/11/27 11:53:28;;;;;;;29.42;17.90;;;5.80;99.90;;;;;;6160994;23;20013;-77
2021/11/27 11:55:58;;;;;;;29.33;18.45;;;5.80;99.90;;;;;;6139510;23;20005;-78
2021/11/27 11:58:34;;;;;;;29.05;18.02;;;5.70;99.90;;;;;;6161942;23;20012;-77
2021/11/27 12:01:04;;;;;;;37.50;20.03;;;5.80;99.90;;;;;;6164330;23;20012;-77
2021/11/27 12:03:38;;;;;;;31.50;18.60;;;5.80;99.90;;;;;;6161727;23;20243;-78
2021/11/27 12:06:07;;;;;;;35.03;23.27;;;5.80;99.90;;;;;;6163988;23;20336;-77
2021/11/27 12:08:47;;;;;;;63.03;37.70;;;5.80;99.90;;;;;;6162533;23;20012;-77
2021/11/27 12:11:44;;;;;;;38.50;25.90;;;5.80;99.90;;;;;;6162730;23;20100;-77
2021/11/27 12:14:22;;;;;;;59.05;36.75;;;5.80;99.90;;;;;;6161741;23;20010;-77
2021/11/27 12:17:14;;;;;;;81.13;48.45;;;5.80;99.90;;;;;;6162398;23;20495;-78
2021/11/27 12:19:55;;;;;;;53.60;32.05;;;5.90;99.90;;;;;;6158588;23;20097;-78
2021/11/27 12:22:23;;;;;;;27.88;18.63;;;5.90;99.90;;;;;;6161528;23;20009;-77
2021/11/27 12:25:08;;;;;;;26.80;17.00;;;6.00;99.90;;;;;;6161070;23;20060;-77
2021/11/27 12:27:54;;;;;;;39.72;22.92;;;6.10;99.90;;;;;;6161959;23;20009;-78
2021/11/27 12:30:20;;;;;;;33.58;19.80;;;6.10;99.90;;;;;;6162371;23;20436;-77
2021/11/27 12:32:46;;;;;;;34.95;21.08;;;6.10;99.90;;;;;;6161095;23;20025;-78
2021/11/27 12:35:27;;;;;;;;;;;6.10;99.90;;;;;;6161970;23;20092;-77
2021/11/27 12:38:08;;;;;;;44.05;22.83;;;6.10;99.90;;;;;;6159748;23;19900;-77
2021/11/27 12:40:38;;;;;;;32.70;19.98;;;6.00;99.90;;;;;;6158138;23;20490;-77
2021/11/27 12:43:13;;;;;;;28.40;17.40;;;6.10;99.90;;;;;;6160246;23;20104;-77
2021/11/27 12:45:40;;;;;;;27.83;17.98;;;6.00;99.90;;;;;;6160086;23;20024;-76
2021/11/27 12:48:28;;;;;;;27.63;18.83;;;6.00;99.90;;;;;;6159587;23;20013;-77
2021/11/27 12:51:18;;;;;;;28.98;18.70;;;5.80;99.90;;;;;;6159967;23;20016;-77
2021/11/27 12:54:19;;;;;;;30.48;20.67;;;5.70;99.90;;;;;;6161284;23;20209;-77
2021/11/27 12:56:47;;;;;;;35.55;21.40;;;5.60;99.90;;;;;;6161847;23;20343;-77
2021/11/27 12:59:21;;;;;;;74.05;45.22;;;5.60;99.90;;;;;;6161759;23;20012;-77
2021/11/27 13:01:47;;;;;;;50.15;32.55;;;5.60;99.90;;;;;;6163945;23;20016;-77
2021/11/27 13:04:14;;;;;;;36.38;22.80;;;5.30;99.90;;;;;;6162307;23;20050;-76
2021/11/27 13:06:40;;;;;;;27.90;18.02;;;5.40;99.90;;;;;;6161795;23;20021;-76
2021/11/27 13:09:18;;;;;;;;;;;5.30;99.90;;;;;;6162051;23;20017;-78